Time;durP1;ratioP1;P1;durP2;ratioP2;P2;SDS_P1;SDS_P2;PMS_P1;PMS_P2;Temp;Humidity;BMP_temperature;BMP_pressure;BME280_temperature;BME280_humidity;BME280_pressure;Samples;Min_cycle;Max_cycle;Signal;HPM_P1;HPM_P2
2022/04/06 00:00:33;;;;;;;0.60;0.10;;;11.00;1.00;;;;;;5051942;28;20989;-72
2022/04/06 00:03:02;;;;;;;0.60;0.20;;;11.00;1.00;;;;;;5039073;28;20553;-72
2022/04/06 00:05:30;;;;;;;0.60;0.33;;;10.90;1.00;;;;;;5053773;28;20573;-71
2022/04/06 00:07:58;;;;;;;0.60;0.20;;;10.90;1.00;;;;;;5057688;28;20478;-73
2022/04/06 00:10:26;;;;;;;3.73;2.43;;;10.90;1.00;;;;;;5053195;28;20442;-71
2022/04/06 00:12:54;;;;;;;0.60;0.10;;;10.90;1.00;;;;;;5053184;28;20970;-71
2022/04/06 00:15:22;;;;;;;0.60;0.10;;;10.90;1.00;;;;;;5038240;28;20514;-70
2022/04/06 00:17:50;;;;;;;0.93;0.87;;;10.90;1.00;;;;;;5036038;28;20461;-70
2022/04/06 00:20:19;;;;;;;0.60;0.10;;;11.00;1.00;;;;;;5037674;28;20530;-70
2022/04/06 00:22:47;;;;;;;0.60;0.17;;;11.00;1.00;;;;;;5039422;28;20446;-71
2022/04/06 00:25:15;;;;;;;0.90;0.53;;;11.00;1.00;;;;;;5056354;28;20546;-70
2022/04/06 00:27:43;;;;;;;0.60;0.10;;;11.00;1.00;;;;;;5047763;28;20546;-72
2022/04/06 00:30:11;;;;;;;0.60;0.10;;;11.00;1.00;;;;;;5045416;28;20538;-70
2022/04/06 00:32:39;;;;;;;0.60;0.10;;;11.00;1.00;;;;;;5041125;28;20462;-72
2022/04/06 00:37:55;;;;;;;0.70;0.60;;;11.00;1.00;;;;;;5063355;28;20466;-71
2022/04/06 00:40:23;;;;;;;1.17;1.07;;;11.00;1.00;;;;;;5064040;28;20452;-72
2022/04/06 00:42:53;;;;;;;1.00;0.40;;;10.90;1.00;;;;;;5064407;28;20501;-70
2022/04/06 00:45:21;;;;;;;0.80;0.70;;;10.90;1.00;;;;;;5062647;28;20983;-71
2022/04/06 00:47:50;;;;;;;2.30;1.13;;;10.90;1.00;;;;;;5062976;28;20558;-72
2022/04/06 00:50:18;;;;;;;0.60;0.20;;;10.90;1.00;;;;;;5063891;28;20557;-73
2022/04/06 00:52:47;;;;;;;0.60;0.10;;;10.90;1.00;;;;;;5063357;28;20446;-71
2022/04/06 00:55:17;;;;;;;2.80;1.67;;;10.90;1.00;;;;;;5053002;28;20443;-70
2022/04/06 00:57:46;;;;;;;0.70;0.40;;;;;;;;;;5038023;28;20486;-72
2022/04/06 01:00:15;;;;;;;0.60;0.20;;;10.90;1.00;;;;;;5036645;28;20533;-70
2022/04/06 01:02:43;;;;;;;0.50;0.10;;;10.90;1.00;;;;;;5036092;28;20454;-69
2022/04/06 01:05:13;;;;;;;3.07;1.67;;;10.90;1.00;;;;;;5035583;28;20475;-71
2022/04/06 01:07:43;;;;;;;0.57;0.10;;;10.90;1.00;;;;;;5037703;28;20471;-71
2022/04/06 01:10:11;;;;;;;3.27;1.33;;;10.90;1.00;;;;;;5039210;28;20455;-71
2022/04/06 01:12:41;;;;;;;1.37;1.27;;;10.90;1.00;;;;;;5037659;28;20474;-71
2022/04/06 01:15:10;;;;;;;3.50;0.77;;;10.90;1.00;;;;;;5035595;28;20445;-72
2022/04/06 01:17:37;;;;;;;0.60;0.30;;;10.90;1.00;;;;;;5034912;28;20470;-70
2022/04/06 01:20:07;;;;;;;1.33;0.77;;;10.90;1.00;;;;;;5034796;28;20446;-70
2022/04/06 01:22:37;;;;;;;0.60;0.30;;;10.90;1.00;;;;;;5044586;28;20572;-71
2022/04/06 01:25:06;;;;;;;0.60;0.10;;;10.80;1.00;;;;;;5052948;28;20482;-70
2022/04/06 01:27:34;;;;;;;1.17;1.07;;;10.90;1.00;;;;;;5034536;28;20555;-71
2022/04/06 01:30:03;;;;;;;1.67;0.87;;;10.90;1.00;;;;;;5033945;28;21159;-71
2022/04/06 01:32:32;;;;;;;0.60;0.10;;;10.90;1.00;;;;;;5035207;28;20478;-73
2022/04/06 01:35:01;;;;;;;0.57;0.10;;;10.90;1.00;;;;;;5033738;28;20550;-71
2022/04/06 01:37:29;;;;;;;0.60;0.37;;;10.90;1.00;;;;;;5034287;28;20562;-72
2022/04/06 01:39:58;;;;;;;0.60;0.10;;;10.90;1.00;;;;;;5034215;28;20806;-71
2022/04/06 01:42:26;;;;;;;0.60;0.10;;;10.90;1.00;;;;;;5033925;28;20456;-70
2022/04/06 01:44:54;;;;;;;0.60;0.10;;;10.90;1.00;;;;;;5033821;28;20474;-70
2022/04/06 01:47:22;;;;;;;0.60;0.10;;;10.90;1.00;;;;;;5033522;28;20477;-71
2022/04/06 01:52:36;;;;;;;0.50;0.10;;;10.90;1.00;;;;;;5033406;28;20443;-71
2022/04/06 01:55:08;;;;;;;4.50;3.30;;;10.90;1.00;;;;;;5033632;28;20547;-71
2022/04/06 01:57:36;;;;;;;0.60;0.20;;;10.90;1.00;;;;;;5033814;28;20558;-72
2022/04/06 02:00:09;;;;;;;2.47;1.60;;;10.90;1.00;;;;;;5033583;28;20535;-70
2022/04/06 02:02:38;;;;;;;1.70;0.30;;;10.90;1.00;;;;;;5044599;28;21038;-70
2022/04/06 02:05:07;;;;;;;2.60;1.23;;;10.90;1.00;;;;;;5054218;28;20489;-72
2022/04/06 02:07:35;;;;;;;0.60;0.10;;;10.80;1.00;;;;;;5060431;28;20789;-72
2022/04/06 02:10:05;;;;;;;1.10;0.37;;;10.80;1.00;;;;;;5057069;28;20519;-71
2022/04/06 02:12:33;;;;;;;1.30;0.97;;;;;;;;;;5054520;28;20446;-70
2022/04/06 02:15:02;;;;;;;0.60;0.43;;;10.80;1.00;;;;;;5054407;28;20533;-72
2022/04/06 02:17:30;;;;;;;0.60;0.10;;;10.90;1.00;;;;;;5052537;28;20561;-69
2022/04/06 02:19:58;;;;;;;0.60;0.40;;;10.80;1.00;;;;;;5033334;28;20447;-71
2022/04/06 02:22:26;;;;;;;0.53;0.10;;;10.80;1.00;;;;;;5034472;28;20470;-71
2022/04/06 02:24:54;;;;;;;0.50;0.10;;;10.80;1.00;;;;;;5034854;28;20479;-71
2022/04/06 02:27:23;;;;;;;0.80;0.67;;;10.80;1.00;;;;;;5033416;28;20485;-71
2022/04/06 02:29:51;;;;;;;0.60;0.27;;;;;;;;;;5038573;28;20955;-71
2022/04/06 02:32:21;;;;;;;0.60;0.20;;;10.90;1.00;;;;;;5052570;28;20485;-70
2022/04/06 02:34:53;;;;;;;0.60;0.10;;;10.90;1.00;;;;;;5052279;28;20443;-71
2022/04/06 02:37:21;;;;;;;0.70;0.30;;;10.90;1.00;;;;;;5052431;28;20469;-72
2022/04/06 02:39:49;;;;;;;3.30;3.20;;;10.90;1.00;;;;;;5052614;28;20446;-71
2022/04/06 02:42:17;;;;;;;1.50;1.40;;;10.90;1.00;;;;;;5052578;28;20797;-71
2022/04/06 02:44:47;;;;;;;0.60;0.20;;;10.90;1.00;;;;;;5052459;28;20481;-70
2022/04/06 02:47:15;;;;;;;0.60;0.10;;;10.90;1.00;;;;;;5076348;22;20645;-74
2022/04/06 02:49:42;;;;;;;0.60;0.20;;;10.90;1.00;;;;;;5033133;28;20450;-75
2022/04/06 02:52:10;;;;;;;0.60;0.20;;;10.90;1.00;;;;;;5034153;28;20448;-75
2022/04/06 02:54:38;;;;;;;0.60;0.10;;;10.90;1.00;;;;;;5034095;28;20538;-76
2022/04/06 02:57:07;;;;;;;2.63;0.73;;;10.90;1.00;;;;;;5032062;28;20547;-74
2022/04/06 02:59:37;;;;;;;0.77;0.77;;;10.90;1.00;;;;;;5036488;28;20983;-74
2022/04/06 03:02:06;;;;;;;3.27;2.97;;;10.90;1.00;;;;;;5047056;28;20443;-74
2022/04/06 03:04:34;;;;;;;0.60;0.30;;;10.90;1.00;;;;;;5032958;28;20538;-76
2022/04/06 03:07:02;;;;;;;2.03;1.00;;;10.90;1.00;;;;;;5037814;28;20479;-76
2022/04/06 03:09:30;;;;;;;2.90;1.93;;;10.90;1.00;;;;;;5040308;28;20964;-75
2022/04/06 03:11:59;;;;;;;0.70;0.60;;;10.90;1.00;;;;;;5038461;28;20817;-76
2022/04/06 03:14:27;;;;;;;0.70;0.63;;;10.90;1.00;;;;;;5034048;28;20459;-75
2022/04/06 03:16:55;;;;;;;1.00;0.90;;;10.90;1.00;;;;;;5037519;28;20564;-76
2022/04/06 03:19:24;;;;;;;2.10;1.90;;;10.90;1.00;;;;;;5037106;28;20444;-76
2022/04/06 03:21:52;;;;;;;4.37;2.13;;;10.90;1.00;;;;;;5036889;28;20467;-76
2022/04/06 03:24:20;;;;;;;2.67;1.60;;;10.80;1.00;;;;;;5035969;28;20451;-75
2022/04/06 03:26:48;;;;;;;0.60;0.30;;;10.80;1.00;;;;;;5046726;28;20519;-75
2022/04/06 03:29:16;;;;;;;4.67;4.23;;;10.80;1.00;;;;;;5054298;28;20441;-75
2022/04/06 03:31:43;;;;;;;0.80;0.73;;;10.80;1.00;;;;;;5059215;28;20598;-75
2022/04/06 03:34:12;;;;;;;3.53;3.23;;;10.80;1.00;;;;;;5054166;28;20458;-75
2022/04/06 03:36:41;;;;;;;1.10;0.40;;;10.80;1.00;;;;;;5053857;28;20462;-75
2022/04/06 03:39:09;;;;;;;1.10;1.00;;;10.80;1.00;;;;;;5052226;28;20451;-75
2022/04/06 03:41:37;;;;;;;1.57;1.23;;;10.80;1.00;;;;;;5052661;28;20458;-75
2022/04/06 03:44:05;;;;;;;0.60;0.20;;;10.80;1.00;;;;;;5053036;28;20454;-76
2022/04/06 03:46:33;;;;;;;2.90;2.17;;;10.80;1.00;;;;;;5053223;28;20493;-75
2022/04/06 03:49:07;;;;;;;0.70;0.40;;;10.80;1.00;;;;;;5034789;28;20975;-75
2022/04/06 03:51:35;;;;;;;2.50;1.80;;;10.80;1.00;;;;;;5034019;28;20519;-74
2022/04/06 03:54:05;;;;;;;4.30;1.30;;;10.80;1.00;;;;;;5037375;28;20478;-75
2022/04/06 03:56:33;;;;;;;0.53;0.13;;;10.80;1.00;;;;;;5036363;28;20451;-76
2022/04/06 03:59:01;;;;;;;1.50;0.40;;;10.90;1.00;;;;;;5035589;28;20455;-75
2022/04/06 04:01:30;;;;;;;0.60;0.40;;;10.90;1.00;;;;;;5041568;28;20450;-76
2022/04/06 04:03:58;;;;;;;1.47;1.30;;;10.90;1.00;;;;;;5056709;28;20523;-74
2022/04/06 04:06:26;;;;;;;1.63;0.57;;;10.80;1.00;;;;;;5057585;28;20548;-76
2022/04/06 04:08:54;;;;;;;1.67;0.80;;;10.90;1.00;;;;;;5057664;28;20537;-75
2022/04/06 04:11:23;;;;;;;6.97;1.93;;;10.80;1.00;;;;;;5056345;28;20527;-75
2022/04/06 04:13:51;;;;;;;4.43;1.67;;;10.70;1.00;;;;;;5056110;28;20944;-74
2022/04/06 04:16:19;;;;;;;2.07;1.67;;;10.70;1.00;;;;;;5056626;28;20513;-75
2022/04/06 04:18:47;;;;;;;1.40;1.20;;;10.70;1.00;;;;;;5043976;28;20541;-74
2022/04/06 04:21:35;;;;;;;1.17;0.70;;;10.70;1.00;;;;;;5039893;28;20454;-75
2022/04/06 04:24:03;;;;;;;3.23;1.23;;;10.70;1.00;;;;;;5039276;28;20810;-76
2022/04/06 04:26:34;;;;;;;6.37;1.37;;;10.70;1.00;;;;;;5039271;28;20490;-75
2022/04/06 04:29:02;;;;;;;3.37;2.10;;;10.70;1.00;;;;;;5038463;28;20497;-76
2022/04/06 04:31:30;;;;;;;1.20;0.83;;;10.70;1.00;;;;;;5037047;28;20466;-77
2022/04/06 04:33:58;;;;;;;1.03;0.93;;;10.70;1.00;;;;;;5031714;28;20929;-77
2022/04/06 04:36:26;;;;;;;1.77;1.50;;;10.70;1.00;;;;;;5045542;28;20464;-76
2022/04/06 04:38:55;;;;;;;3.53;1.13;;;10.70;1.00;;;;;;5035569;28;20446;-77
2022/04/06 04:41:23;;;;;;;1.33;1.20;;;10.70;1.00;;;;;;5036310;28;20453;-76
2022/04/06 04:43:52;;;;;;;3.43;0.90;;;10.70;1.00;;;;;;5035037;28;20443;-75
2022/04/06 04:46:21;;;;;;;0.97;0.50;;;10.70;1.00;;;;;;5035012;28;20988;-78
2022/04/06 04:48:49;;;;;;;1.00;0.50;;;10.70;1.00;;;;;;5034977;28;20457;-74
2022/04/06 04:51:17;;;;;;;2.60;2.13;;;10.70;1.00;;;;;;5044939;28;21026;-76
2022/04/06 04:53:45;;;;;;;0.60;0.10;;;10.60;1.00;;;;;;5054642;28;20441;-76
2022/04/06 04:56:15;;;;;;;24.43;6.77;;;10.70;1.00;;;;;;5061313;28;20442;-77
2022/04/06 04:58:43;;;;;;;1.87;1.77;;;10.70;1.00;;;;;;5051316;28;20455;-76
2022/04/06 05:01:12;;;;;;;2.70;2.47;;;10.60;1.00;;;;;;5028988;28;20459;-76
2022/04/06 05:03:40;;;;;;;0.60;0.20;;;10.60;1.00;;;;;;5036524;28;20964;-75
2022/04/06 05:06:08;;;;;;;0.80;0.50;;;10.60;1.00;;;;;;5050897;28;20442;-74
2022/04/06 05:08:36;;;;;;;0.93;0.83;;;10.60;1.00;;;;;;5057488;28;20476;-76
2022/04/06 05:11:04;;;;;;;0.60;0.20;;;10.60;1.00;;;;;;5061192;28;20464;-76
2022/04/06 05:13:32;;;;;;;2.00;0.63;;;10.60;1.00;;;;;;5060569;28;20446;-77
2022/04/06 05:16:00;;;;;;;0.60;0.20;;;10.60;1.00;;;;;;5047407;28;20460;-76
2022/04/06 05:18:33;;;;;;;0.60;0.20;;;10.60;1.00;;;;;;5034358;28;20519;-77
2022/04/06 05:21:01;;;;;;;0.60;0.20;;;10.60;1.00;;;;;;5036589;28;20443;-76
2022/04/06 05:23:29;;;;;;;1.90;1.80;;;10.60;1.00;;;;;;5042299;28;20450;-75
2022/04/06 05:25:57;;;;;;;1.33;1.13;;;10.60;1.00;;;;;;5046014;28;20800;-76
2022/04/06 05:28:25;;;;;;;0.90;0.63;;;10.60;1.00;;;;;;5044423;28;20914;-76
2022/04/06 05:30:53;;;;;;;1.00;0.50;;;10.60;1.00;;;;;;5037637;28;20443;-75
2022/04/06 05:33:21;;;;;;;1.23;0.97;;;10.60;1.00;;;;;;5037246;28;20486;-76
2022/04/06 05:35:51;;;;;;;0.60;0.30;;;10.60;1.00;;;;;;5035659;28;20489;-77
2022/04/06 05:38:19;;;;;;;0.80;0.40;;;10.70;1.00;;;;;;5034826;28;20597;-77
2022/04/06 05:40:46;;;;;;;7.20;1.90;;;10.80;1.00;;;;;;5036303;28;20923;-77
2022/04/06 05:46:00;;;;;;;1.93;0.97;;;10.80;1.00;;;;;;5035555;28;20471;-76
2022/04/06 05:48:28;;;;;;;0.60;0.30;;;10.80;1.00;;;;;;5034005;28;20483;-75
2022/04/06 05:50:57;;;;;;;1.07;0.50;;;10.80;1.00;;;;;;5022899;28;20975;-75
2022/04/06 05:53:25;;;;;;;0.60;0.20;;;10.80;1.00;;;;;;5027332;28;20626;-76
2022/04/06 05:55:53;;;;;;;0.70;0.30;;;10.80;1.00;;;;;;5029143;28;20465;-75
2022/04/06 05:58:21;;;;;;;0.80;0.70;;;10.80;1.00;;;;;;5030809;28;20849;-75
2022/04/06 06:00:49;;;;;;;0.80;0.57;;;10.80;1.00;;;;;;5033241;28;20450;-74
2022/04/06 06:03:17;;;;;;;0.90;0.80;;;10.80;1.00;;;;;;5035343;28;20445;-77
2022/04/06 06:05:45;;;;;;;1.27;0.90;;;10.90;1.00;;;;;;5032732;28;20455;-76
2022/04/06 06:08:20;;;;;;;1.37;1.20;;;10.90;1.00;;;;;;5036858;28;20512;-77
2022/04/06 06:10:48;;;;;;;3.03;1.03;;;10.90;1.00;;;;;;5037665;28;20795;-79
2022/04/06 06:13:16;;;;;;;3.50;1.13;;;10.90;1.00;;;;;;5026747;28;20958;-77
2022/04/06 06:15:44;;;;;;;0.80;0.47;;;11.00;1.00;;;;;;5038315;28;20518;-77
2022/04/06 06:18:12;;;;;;;4.47;1.00;;;11.00;1.00;;;;;;5050873;28;20470;-77
2022/04/06 06:20:40;;;;;;;0.60;0.30;;;11.00;1.00;;;;;;5048961;28;20883;-77
2022/04/06 06:23:08;;;;;;;0.70;0.20;;;11.00;1.00;;;;;;5037976;28;20451;-77
2022/04/06 06:25:37;;;;;;;2.50;2.17;;;11.00;1.00;;;;;;5043300;28;20450;-78
2022/04/06 06:28:05;;;;;;;9.53;2.57;;;11.00;1.00;;;;;;5040654;28;20578;-78
2022/04/06 06:30:33;;;;;;;0.60;0.10;;;11.00;1.00;;;;;;5039904;28;20453;-78
2022/04/06 06:33:01;;;;;;;0.90;0.77;;;11.00;1.00;;;;;;5042976;28;20467;-76
2022/04/06 06:35:29;;;;;;;0.73;0.53;;;11.00;1.00;;;;;;5042486;28;20455;-76
2022/04/06 06:37:57;;;;;;;45.97;1.63;;;11.00;1.00;;;;;;5044519;28;20459;-75
2022/04/06 06:40:27;;;;;;;2.10;0.97;;;11.00;1.00;;;;;;5045588;28;20535;-77
2022/04/06 06:42:56;;;;;;;1.10;0.30;;;11.10;1.00;;;;;;5043817;28;20471;-77
2022/04/06 06:45:25;;;;;;;1.93;1.30;;;11.10;1.00;;;;;;5046953;28;20557;-76
2022/04/06 06:47:52;;;;;;;0.60;0.40;;;11.10;1.00;;;;;;5009940;28;1043816;-76
2022/04/06 06:50:21;;;;;;;0.60;0.50;;;11.20;1.00;;;;;;5045930;28;20208;-76
2022/04/06 06:52:48;;;;;;;0.60;0.10;;;11.10;1.00;;;;;;5045834;28;20446;-76
2022/04/06 06:55:18;;;;;;;0.60;0.30;;;11.20;1.00;;;;;;5046890;28;20443;-75
2022/04/06 06:57:47;;;;;;;0.70;0.43;;;11.20;1.00;;;;;;5044726;28;20556;-78
2022/04/06 07:00:17;;;;;;;0.80;0.40;;;11.20;1.00;;;;;;5043906;28;20447;-76
2022/04/06 07:02:45;;;;;;;0.70;0.47;;;11.20;1.00;;;;;;5051496;28;20439;-77
2022/04/06 07:05:13;;;;;;;0.60;0.10;;;11.20;1.00;;;;;;5056893;28;20446;-76
2022/04/06 07:07:52;;;;;;;1.67;0.67;;;11.30;1.00;;;;;;5056714;28;20557;-77
2022/04/06 07:10:20;;;;;;;0.60;0.10;;;11.30;1.00;;;;;;5058878;28;20473;-75
2022/04/06 07:12:49;;;;;;;0.90;0.40;;;11.40;1.00;;;;;;5047173;28;20463;-76
2022/04/06 07:15:19;;;;;;;0.60;0.30;;;11.50;1.00;;;;;;5048319;28;20447;-76
2022/04/06 07:17:51;;;;;;;0.80;0.57;;;11.50;1.00;;;;;;5040683;28;20467;-77
2022/04/06 07:20:19;;;;;;;0.93;0.83;;;11.40;1.00;;;;;;5037265;28;20427;-75
2022/04/06 07:22:47;;;;;;;1.13;0.70;;;11.40;1.00;;;;;;5040656;28;20794;-76
2022/04/06 07:25:15;;;;;;;8.63;3.20;;;11.30;1.00;;;;;;5039827;28;20435;-75
2022/04/06 07:27:43;;;;;;;1.87;1.77;;;11.30;1.00;;;;;;5039126;28;20482;-74
2022/04/06 07:30:13;;;;;;;2.53;1.50;;;11.30;1.00;;;;;;5039409;28;20454;-78
2022/04/06 07:32:43;;;;;;;0.60;0.23;;;11.40;1.00;;;;;;5036476;28;20682;-76
2022/04/06 07:35:11;;;;;;;3.20;1.60;;;11.50;1.00;;;;;;5037043;28;20448;-75
2022/04/06 07:37:41;;;;;;;15.37;0.77;;;11.40;99.90;;;;;;5037086;28;20474;-76
2022/04/06 07:40:10;;;;;;;1.13;0.73;;;11.50;1.00;;;;;;5034296;28;20440;-76
2022/04/06 07:42:39;;;;;;;4.50;1.40;;;11.50;99.90;;;;;;5033422;28;20451;-76
2022/04/06 07:45:09;;;;;;;0.87;0.60;;;11.50;99.90;;;;;;5034581;28;20462;-76
2022/04/06 07:47:38;;;;;;;3.40;1.60;;;11.60;99.90;;;;;;5040580;28;20480;-75
2022/04/06 07:50:08;;;;;;;0.70;0.43;;;11.60;99.90;;;;;;5036788;28;20461;-77
2022/04/06 07:52:37;;;;;;;3.63;2.13;;;11.60;99.90;;;;;;5035668;28;20475;-77
2022/04/06 07:55:07;;;;;;;2.20;0.60;;;11.70;99.90;;;;;;5033593;28;20879;-77
2022/04/06 07:57:35;;;;;;;1.57;1.10;;;11.80;99.90;;;;;;5033281;28;20463;-76
2022/04/06 08:00:07;;;;;;;2.20;0.63;;;11.80;99.90;;;;;;5033510;28;20443;-76
2022/04/06 08:02:35;;;;;;;1.27;0.77;;;11.80;99.90;;;;;;5033279;28;20459;-78
2022/04/06 08:05:03;;;;;;;2.37;1.40;;;11.70;99.90;;;;;;5033147;28;20440;-77
2022/04/06 08:07:39;;;;;;;0.70;0.20;;;11.60;99.90;;;;;;5033091;28;20472;-76
2022/04/06 08:10:09;;;;;;;1.97;1.70;;;11.60;99.90;;;;;;5033215;28;20478;-77
2022/04/06 08:12:37;;;;;;;1.07;0.73;;;11.60;99.90;;;;;;5033184;28;20486;-76
2022/04/06 08:15:07;;;;;;;5.90;0.57;;;12.30;99.90;;;;;;5038863;28;20467;-76
2022/04/06 08:17:36;;;;;;;1.53;0.77;;;11.60;99.90;;;;;;5051337;28;21015;-76
2022/04/06 08:20:06;;;;;;;2.47;1.23;;;11.70;99.90;;;;;;5051428;28;20537;-76
2022/04/06 08:22:35;;;;;;;0.80;0.50;;;11.70;99.90;;;;;;5052181;28;20928;-76
2022/04/06 08:25:05;;;;;;;7.90;2.03;;;11.80;99.90;;;;;;5043065;28;20524;-75
2022/04/06 08:27:53;;;;;;;0.60;0.30;;;11.80;99.90;;;;;;5039355;28;20529;-76
2022/04/06 08:30:22;;;;;;;7.07;0.83;;;11.70;99.90;;;;;;5044672;28;20447;-76
2022/04/06 08:32:50;;;;;;;7.40;2.10;;;11.70;99.90;;;;;;5043551;28;20591;-77
2022/04/06 08:35:18;;;;;;;3.60;1.10;;;11.70;99.90;;;;;;5042920;28;20450;-75
2022/04/06 08:37:48;;;;;;;2.47;1.30;;;11.70;99.90;;;;;;5042005;28;20546;-75
2022/04/06 08:40:18;;;;;;;0.60;0.17;;;11.60;99.90;;;;;;5039194;28;20469;-76
2022/04/06 08:42:47;;;;;;;0.90;0.53;;;11.40;99.90;;;;;;5045998;28;20443;-77
2022/04/06 08:45:16;;;;;;;2.20;1.13;;;11.70;99.90;;;;;;5041964;28;20475;-77
2022/04/06 08:47:48;;;;;;;8.90;0.93;;;11.90;99.90;;;;;;5058167;23;20501;-71
2022/04/06 08:50:19;;;;;;;1.07;0.63;;;11.90;99.90;;;;;;5037134;28;20447;-69
2022/04/06 08:52:48;;;;;;;0.60;0.10;;;12.00;99.90;;;;;;5036201;28;20443;-71
2022/04/06 08:55:33;;;;;;;2.03;1.67;;;12.10;99.90;;;;;;5035342;28;20504;-71
2022/04/06 08:58:02;;;;;;;2.37;1.07;;;12.30;99.90;;;;;;5046221;28;20462;-71
2022/04/06 09:00:31;;;;;;;1.47;0.50;;;12.30;99.90;;;;;;5055653;28;20950;-71
2022/04/06 09:02:59;;;;;;;0.70;0.50;;;12.20;99.90;;;;;;5055462;28;20663;-69
2022/04/06 09:05:31;;;;;;;0.77;0.50;;;12.20;99.90;;;;;;5048919;28;20482;-70
2022/04/06 09:08:01;;;;;;;2.87;1.10;;;12.20;99.90;;;;;;5055090;28;20475;-71
2022/04/06 09:10:33;;;;;;;1.00;0.30;;;12.30;99.90;;;;;;5048260;28;20434;-72
2022/04/06 09:13:14;;;;;;;0.60;0.20;;;12.40;99.90;;;;;;5051945;28;20435;-69
2022/04/06 09:15:44;;;;;;;2.00;1.90;;;12.40;99.90;;;;;;5050197;28;20526;-70
2022/04/06 09:18:13;;;;;;;1.80;0.97;;;12.50;99.90;;;;;;5048543;28;20459;-71
2022/04/06 09:20:41;;;;;;;1.13;0.97;;;12.50;99.90;;;;;;5051485;28;20439;-71
2022/04/06 09:23:11;;;;;;;8.60;1.40;;;;;;;;;;5048861;28;20470;-71
2022/04/06 09:25:41;;;;;;;0.97;0.63;;;12.50;99.90;;;;;;5048949;28;20439;-70
2022/04/06 09:28:11;;;;;;;1.57;0.80;;;12.40;99.90;;;;;;5052649;28;20474;-71
2022/04/06 09:30:40;;;;;;;2.40;1.70;;;12.30;99.90;;;;;;5051457;28;21020;-72
2022/04/06 09:33:14;;;;;;;5.53;1.40;;;12.20;99.90;;;;;;5054610;28;20446;-69
2022/04/06 09:35:43;;;;;;;1.97;1.87;;;12.20;99.90;;;;;;5050491;28;20449;-72
2022/04/06 09:38:14;;;;;;;2.50;1.70;;;12.10;99.90;;;;;;5034436;28;20554;-71
2022/04/06 09:40:43;;;;;;;2.00;1.80;;;12.10;99.90;;;;;;5051578;28;20936;-69
2022/04/06 09:43:25;;;;;;;0.80;0.40;;;12.20;99.90;;;;;;5054114;28;20474;-72
2022/04/06 09:48:56;;;;;;;1.90;1.17;;;12.30;99.90;;;;;;5053402;28;20498;-72
2022/04/06 09:51:24;;;;;;;29.47;1.60;;;11.90;99.90;;;;;;5039217;28;20443;-72
2022/04/06 09:53:55;;;;;;;9.63;2.00;;;12.40;99.90;;;;;;5033052;28;20519;-71
2022/04/06 09:56:23;;;;;;;0.60;0.20;;;12.50;99.90;;;;;;5037560;28;20475;-71
2022/04/06 09:58:51;;;;;;;2.43;1.50;;;12.50;99.90;;;;;;5054638;28;20457;-71
2022/04/06 10:01:19;;;;;;;1.93;1.20;;;12.40;99.90;;;;;;5053939;28;20964;-70
2022/04/06 10:03:51;;;;;;;3.40;1.43;;;12.50;99.90;;;;;;5048624;28;20937;-72
2022/04/06 10:06:19;;;;;;;1.97;1.13;;;12.50;99.90;;;;;;5034026;28;20448;-69
2022/04/06 10:08:47;;;;;;;1.37;1.10;;;12.50;99.90;;;;;;5034629;28;20503;-71
2022/04/06 10:11:18;;;;;;;3.17;2.97;;;12.50;99.90;;;;;;5054035;28;20446;-71
2022/04/06 10:13:47;;;;;;;1.57;1.20;;;12.50;99.90;;;;;;5053829;28;20438;-70
2022/04/06 10:16:24;;;;;;;0.90;0.40;;;12.40;99.90;;;;;;5052447;28;20976;-69
2022/04/06 10:18:54;;;;;;;0.90;0.60;;;12.50;99.90;;;;;;5052026;28;20554;-70
2022/04/06 10:21:29;;;;;;;0.60;0.27;;;12.60;99.90;;;;;;5052437;28;20525;-70
2022/04/06 10:24:09;;;;;;;0.80;0.60;;;12.80;99.90;;;;;;5052503;28;20450;-70
2022/04/06 10:26:49;;;;;;;2.87;1.40;;;12.80;99.90;;;;;;5048911;28;20442;-69
2022/04/06 10:29:17;;;;;;;2.10;1.33;;;12.70;99.90;;;;;;5047288;28;21032;-70
2022/04/06 10:31:46;;;;;;;1.47;1.37;;;12.70;99.90;;;;;;5050375;28;20438;-71
2022/04/06 10:34:26;;;;;;;1.70;0.77;;;12.70;99.90;;;;;;5055119;28;21015;-72
2022/04/06 10:37:06;;;;;;;2.30;1.20;;;12.60;99.90;;;;;;5053577;28;20513;-71
2022/04/06 10:39:43;;;;;;;4.60;2.47;;;12.60;99.90;;;;;;5061122;28;21015;-71
2022/04/06 10:42:19;;;;;;;0.93;0.83;;;12.60;99.90;;;;;;5054620;28;20537;-71
2022/04/06 10:44:48;;;;;;;2.20;0.63;;;12.60;99.90;;;;;;5053405;28;20442;-71
2022/04/06 10:47:16;;;;;;;1.20;0.83;;;12.70;99.90;;;;;;5046739;28;20554;-72
2022/04/06 10:50:26;;;;;;;2.23;1.40;;;12.70;99.90;;;;;;5039217;28;20482;-72
2022/04/06 10:53:28;;;;;;;1.67;0.97;;;12.70;99.90;;;;;;5047678;28;20591;-72
2022/04/06 10:55:57;;;;;;;1.57;0.50;;;12.80;99.90;;;;;;5051223;28;20450;-70
2022/04/06 10:58:26;;;;;;;1.00;0.63;;;12.90;99.90;;;;;;5051596;28;20839;-70
2022/04/06 11:01:18;;;;;;;0.83;0.40;;;13.00;99.90;;;;;;5051314;28;20504;-70
2022/04/06 11:03:56;;;;;;;0.80;0.50;;;13.20;99.90;;;;;;5032886;28;20451;-71
2022/04/06 11:06:56;;;;;;;1.00;0.90;;;13.30;99.90;;;;;;5032986;28;20474;-71
2022/04/06 11:12:14;;;;;;;1.10;0.67;;;13.20;99.90;;;;;;5052394;28;20520;-69
2022/04/06 11:14:42;;;;;;;3.47;1.83;;;13.20;99.90;;;;;;5047703;28;20539;-71
2022/04/06 11:17:38;;;;;;;3.60;2.43;;;13.40;99.90;;;;;;5050075;28;20830;-71
2022/04/06 11:20:08;;;;;;;0.70;0.60;;;13.40;99.90;;;;;;5052756;28;20523;-70
2022/04/06 11:22:39;;;;;;;1.47;0.93;;;13.40;99.90;;;;;;5051731;28;20456;-70
2022/04/06 11:25:09;;;;;;;2.17;1.97;;;13.40;99.90;;;;;;5042326;28;20517;-71
2022/04/06 11:27:39;;;;;;;1.23;1.13;;;13.60;99.90;;;;;;5047560;28;20474;-72
2022/04/06 11:30:09;;;;;;;4.63;1.80;;;13.60;99.90;;;;;;5047967;28;20485;-72
2022/04/06 11:32:38;;;;;;;2.00;1.60;;;12.00;99.90;;;;;;5048825;28;20918;-70
2022/04/06 11:35:08;;;;;;;1.10;0.97;;;13.70;99.90;;;;;;5047492;28;21027;-70
2022/04/06 11:37:42;;;;;;;3.43;2.27;;;13.60;99.90;;;;;;5042479;28;20583;-73
2022/04/06 11:40:11;;;;;;;7.60;2.53;;;13.60;99.90;;;;;;5043538;28;20443;-71
2022/04/06 11:42:39;;;;;;;8.23;1.63;;;13.60;99.90;;;;;;5050067;28;21080;-71
2022/04/06 11:45:09;;;;;;;0.90;0.30;;;13.50;99.90;;;;;;5041945;28;20436;-73
2022/04/06 11:47:38;;;;;;;1.67;0.77;;;13.70;99.90;;;;;;5040468;28;20469;-71
2022/04/06 11:50:12;;;;;;;1.93;0.93;;;13.80;99.90;;;;;;5042897;28;20511;-71
2022/04/06 11:52:42;;;;;;;3.60;2.20;;;13.80;99.90;;;;;;5052450;28;20815;-71
2022/04/06 11:55:10;;;;;;;0.73;0.57;;;13.70;99.90;;;;;;5042199;28;20443;-71
2022/04/06 11:57:40;;;;;;;1.07;0.50;;;13.70;99.90;;;;;;5040184;28;20467;-71
2022/04/06 12:00:10;;;;;;;2.30;2.00;;;13.70;99.90;;;;;;5043712;28;20456;-71
2022/04/06 12:02:51;;;;;;;1.23;0.73;;;14.00;99.90;;;;;;5045241;28;20440;-72
2022/04/06 12:05:20;;;;;;;3.50;2.00;;;14.10;99.90;;;;;;5052327;28;20474;-72
2022/04/06 12:10:53;;;;;;;0.60;0.20;;;14.00;99.90;;;;;;5129979;27;20595;-69
2022/04/06 12:13:22;;;;;;;2.10;0.97;;;14.10;99.90;;;;;;5131656;28;20882;-73
2022/04/06 12:15:51;;;;;;;0.60;0.30;;;14.20;99.90;;;;;;5131215;28;20430;-70
2022/04/06 12:18:20;;;;;;;0.70;0.30;;;;;;;;;;5131432;28;20563;-73
2022/04/06 12:20:48;;;;;;;1.37;0.87;;;14.40;99.90;;;;;;5132142;28;20430;-72
2022/04/06 12:23:18;;;;;;;1.60;0.87;;;14.40;99.90;;;;;;5131673;27;20457;-73
2022/04/06 12:25:47;;;;;;;3.37;1.70;;;14.40;99.90;;;;;;5128002;27;20447;-73
2022/04/06 12:28:19;;;;;;;1.03;0.60;;;14.30;99.90;;;;;;5128375;28;20447;-72
2022/04/06 12:30:55;;;;;;;0.60;0.10;;;14.10;99.90;;;;;;5132567;27;20490;-71
2022/04/06 12:33:36;;;;;;;0.70;0.40;;;14.00;99.90;;;;;;5135146;27;20439;-72
2022/04/06 12:36:09;;;;;;;1.60;0.90;;;13.90;99.90;;;;;;5133694;27;20471;-73
2022/04/06 12:38:38;;;;;;;32.50;2.47;;;13.90;99.90;;;;;;5133179;27;20826;-72
2022/04/06 12:41:09;;;;;;;0.83;0.30;;;14.00;99.90;;;;;;5135112;27;20461;-72
2022/04/06 12:43:54;;;;;;;0.60;0.30;;;14.00;99.90;;;;;;5120300;27;20448;-71
2022/04/06 12:46:42;;;;;;;0.80;0.50;;;14.30;99.90;;;;;;5110925;28;20439;-72
2022/04/06 12:49:25;;;;;;;1.00;0.60;;;14.40;99.90;;;;;;5110202;28;20501;-72
2022/04/06 12:52:07;;;;;;;0.60;0.20;;;14.40;99.90;;;;;;5111549;28;20483;-71
2022/04/06 12:54:36;;;;;;;1.13;0.53;;;14.40;99.90;;;;;;5110711;28;20436;-72
2022/04/06 12:57:06;;;;;;;0.80;0.37;;;14.30;99.90;;;;;;5130536;28;20999;-72
2022/04/06 12:59:40;;;;;;;1.87;1.63;;;14.20;99.90;;;;;;5133415;27;20460;-73
2022/04/06 13:02:19;;;;;;;1.77;1.43;;;14.20;99.90;;;;;;5134617;28;20461;-72
2022/04/06 13:04:48;;;;;;;1.27;0.80;;;14.00;99.90;;;;;;5132071;27;20448;-72
2022/04/06 13:07:15;;;;;;;0.60;0.20;;;14.30;99.90;;;;;;5130645;28;20469;-71
2022/04/06 13:10:02;;;;;;;3.40;0.77;;;;;;;;;;5129768;28;20804;-73
2022/04/06 13:12:32;;;;;;;0.80;0.70;;;14.20;99.90;;;;;;5122986;28;20518;-73
2022/04/06 13:15:02;;;;;;;1.23;0.70;;;13.90;99.90;;;;;;5131261;28;20938;-73
2022/04/06 13:17:31;;;;;;;0.90;0.37;;;14.10;99.90;;;;;;5112349;28;20470;-72
2022/04/06 13:19:59;;;;;;;2.30;1.10;;;14.10;99.90;;;;;;5109700;28;20948;-72
2022/04/06 13:22:27;;;;;;;0.90;0.83;;;14.30;99.90;;;;;;5097000;28;20441;-72
2022/04/06 13:24:55;;;;;;;0.80;0.30;;;13.90;99.90;;;;;;5095597;28;20446;-69
2022/04/06 13:27:23;;;;;;;2.00;0.70;;;13.90;99.90;;;;;;5115223;28;20460;-71